Time;durP1;ratioP1;P1;durP2;ratioP2;P2;SDS_P1;SDS_P2;PMS_P1;PMS_P2;Temp;Humidity;BMP_temperature;BMP_pressure;BME280_temperature;BME280_humidity;BME280_pressure;Samples;Min_cycle;Max_cycle;Signal;HPM_P1;HPM_P2
2022/08/01 00:00:09;;;;;;;6.57;3.90;;;18.10;99.90;;;;;;5036134;28;20164;-63
2022/08/01 00:02:36;;;;;;;8.45;4.85;;;18.20;99.90;;;;;;5036818;28;20041;-63
2022/08/01 00:05:01;;;;;;;8.30;3.75;;;18.20;99.90;;;;;;5036528;28;20041;-63
2022/08/01 00:07:27;;;;;;;8.32;4.70;;;18.20;99.90;;;;;;5035732;28;20033;-63
2022/08/01 00:09:53;;;;;;;7.55;3.85;;;18.20;99.90;;;;;;5054296;28;20040;-63
2022/08/01 00:12:19;;;;;;;6.95;4.25;;;18.10;99.90;;;;;;5054590;28;20029;-63
2022/08/01 00:14:44;;;;;;;8.60;4.72;;;18.10;99.90;;;;;;5053089;28;20029;-63
2022/08/01 00:17:10;;;;;;;6.03;3.78;;;18.10;99.90;;;;;;5054400;28;20437;-63
2022/08/01 00:19:35;;;;;;;9.93;4.60;;;18.10;99.90;;;;;;5036543;28;20057;-63
2022/08/01 00:22:01;;;;;;;6.47;3.67;;;18.10;99.90;;;;;;5035408;28;20106;-63
2022/08/01 00:24:28;;;;;;;8.95;4.80;;;18.10;99.90;;;;;;5019626;28;20033;-63
2022/08/01 00:26:54;;;;;;;8.18;4.20;;;18.10;99.90;;;;;;5036464;28;20044;-63
2022/08/01 00:29:19;;;;;;;8.27;3.92;;;18.00;99.90;;;;;;5053337;28;20544;-63
2022/08/01 00:31:45;;;;;;;10.57;4.43;;;18.00;99.90;;;;;;5035692;28;20463;-63
2022/08/01 00:34:10;;;;;;;7.18;4.05;;;18.00;99.90;;;;;;5036393;28;20040;-63
2022/08/01 00:36:36;;;;;;;7.75;4.00;;;18.00;99.90;;;;;;5035459;28;20056;-63
2022/08/01 00:39:02;;;;;;;6.72;3.50;;;18.00;99.90;;;;;;5035858;28;20041;-63
2022/08/01 00:41:28;;;;;;;8.63;3.58;;;18.00;99.90;;;;;;5052649;28;20048;-63
2022/08/01 00:43:54;;;;;;;8.18;3.65;;;18.00;99.90;;;;;;5035898;28;20048;-63
2022/08/01 00:46:19;;;;;;;6.68;3.50;;;18.00;99.90;;;;;;5054196;28;20040;-63
2022/08/01 00:48:45;;;;;;;7.45;3.20;;;17.90;99.90;;;;;;5034787;28;20131;-64
2022/08/01 00:51:12;;;;;;;7.18;3.03;;;18.20;99.90;;;;;;5053942;28;20493;-63
2022/08/01 00:53:39;;;;;;;9.13;3.53;;;18.10;99.90;;;;;;5035555;28;20501;-63
2022/08/01 00:56:06;;;;;;;6.47;3.00;;;18.00;99.90;;;;;;5052659;28;20091;-63
2022/08/01 00:58:33;;;;;;;7.20;3.05;;;;;;;;;;5053380;28;20149;-63
2022/08/01 01:01:00;;;;;;;8.48;2.78;;;;;;;;;;5053570;28;20076;-63
2022/08/01 01:03:26;;;;;;;5.18;2.22;;;;;;;;;;5034871;28;20049;-63
2022/08/01 01:06:09;;;;;;;6.40;2.15;;;;;;;;;;5035271;28;20072;-63
2022/08/01 01:08:54;;;;;;;6.05;2.33;;;;;;;;;;5053178;28;20071;-63
2022/08/01 01:11:28;;;;;;;5.50;2.20;;;17.70;99.90;;;;;;5052928;28;20049;-63
2022/08/01 01:14:04;;;;;;;9.77;2.58;;;17.60;99.90;;;;;;5019039;28;20053;-63
2022/08/01 01:16:32;;;;;;;6.97;2.45;;;17.70;99.90;;;;;;5052325;28;20066;-63
2022/08/01 01:19:02;;;;;;;4.30;1.75;;;17.60;99.90;;;;;;5035124;28;20119;-63
2022/08/01 01:21:56;;;;;;;3.97;1.52;;;17.60;99.90;;;;;;5018363;28;20061;-63
2022/08/01 01:24:37;;;;;;;5.68;1.90;;;17.60;99.90;;;;;;5034397;28;20486;-63
2022/08/01 01:27:06;;;;;;;5.47;2.28;;;17.60;99.90;;;;;;5053138;28;20110;-63
2022/08/01 01:29:41;;;;;;;4.40;1.92;;;17.60;99.90;;;;;;5035138;28;20045;-63
2022/08/01 01:32:14;;;;;;;4.47;1.95;;;17.60;99.90;;;;;;5017606;28;20068;-63
2022/08/01 01:34:43;;;;;;;6.43;2.58;;;17.60;99.90;;;;;;5035009;28;20036;-63
2022/08/01 01:37:15;;;;;;;5.28;2.42;;;17.70;99.90;;;;;;5052706;28;20037;-63
2022/08/01 01:39:42;;;;;;;4.88;1.88;;;17.60;99.90;;;;;;5034119;28;20041;-63
2022/08/01 01:42:09;;;;;;;6.00;2.83;;;17.70;99.90;;;;;;5035097;28;20045;-63
2022/08/01 01:44:36;;;;;;;4.82;2.05;;;17.70;99.90;;;;;;5034394;28;20043;-63
2022/08/01 01:47:04;;;;;;;9.23;2.88;;;17.50;99.90;;;;;;5018256;28;20048;-63
2022/08/01 01:49:31;;;;;;;11.38;2.83;;;17.50;99.90;;;;;;5034420;28;20037;-64
2022/08/01 01:51:58;;;;;;;8.95;3.13;;;17.60;99.90;;;;;;5051693;28;20098;-63
2022/08/01 01:54:34;;;;;;;11.50;4.28;;;17.60;99.90;;;;;;5051623;28;20108;-63
2022/08/01 01:57:03;;;;;;;9.75;3.22;;;17.70;99.90;;;;;;5052554;28;20112;-63
2022/08/01 01:59:31;;;;;;;13.65;3.78;;;17.60;99.90;;;;;;5051403;28;20110;-63
2022/08/01 02:02:00;;;;;;;10.52;3.40;;;17.40;99.90;;;;;;5034329;28;20048;-63
2022/08/01 02:04:27;;;;;;;11.27;3.33;;;17.40;99.90;;;;;;5034517;28;20128;-63
2022/08/01 02:06:54;;;;;;;12.93;4.07;;;17.60;99.90;;;;;;5051439;28;20045;-63
2022/08/01 02:09:22;;;;;;;7.40;3.10;;;17.40;99.90;;;;;;5034409;28;20037;-63
2022/08/01 02:11:49;;;;;;;10.20;3.85;;;17.40;99.90;;;;;;5034509;28;20477;-63
2022/08/01 02:14:17;;;;;;;11.23;3.25;;;17.40;99.90;;;;;;5033941;28;20397;-63
2022/08/01 02:16:46;;;;;;;13.02;3.35;;;17.30;99.90;;;;;;5051936;28;20068;-63
2022/08/01 02:19:14;;;;;;;10.20;3.75;;;17.30;99.90;;;;;;5052276;28;20045;-63
2022/08/01 02:21:47;;;;;;;8.57;2.95;;;17.40;99.90;;;;;;5050983;28;20402;-63
2022/08/01 02:24:17;;;;;;;11.48;3.28;;;17.80;99.90;;;;;;5034844;28;20166;-63
2022/08/01 02:26:49;;;;;;;11.02;3.85;;;17.50;99.90;;;;;;5033839;28;20405;-63
2022/08/01 02:29:21;;;;;;;7.38;3.40;;;17.50;99.90;;;;;;5052207;28;20393;-63
2022/08/01 02:31:48;;;;;;;9.07;3.20;;;17.30;99.90;;;;;;5034260;28;20047;-63
2022/08/01 02:34:18;;;;;;;7.93;3.50;;;17.50;99.90;;;;;;5033437;28;20485;-63
2022/08/01 02:36:45;;;;;;;11.25;3.28;;;17.60;99.90;;;;;;5051895;28;20114;-63
2022/08/01 02:39:14;;;;;;;10.73;3.40;;;17.30;99.90;;;;;;5034276;28;20048;-63
2022/08/01 02:41:44;;;;;;;11.82;3.83;;;17.30;99.90;;;;;;5033104;28;20080;-63
2022/08/01 02:44:18;;;;;;;10.88;3.50;;;17.20;99.90;;;;;;5034138;28;20040;-63
2022/08/01 02:46:50;;;;;;;11.05;3.28;;;17.80;99.90;;;;;;5033582;28;20045;-63
2022/08/01 02:49:19;;;;;;;11.65;3.85;;;17.50;99.90;;;;;;5033432;28;20048;-63
2022/08/01 02:51:47;;;;;;;14.60;4.25;;;17.80;99.90;;;;;;5051380;28;20520;-63
2022/08/01 02:54:15;;;;;;;9.32;3.50;;;17.30;99.90;;;;;;5052070;28;20048;-63
2022/08/01 02:56:43;;;;;;;12.45;3.80;;;17.40;99.90;;;;;;5033204;28;20044;-63
2022/08/01 02:59:14;;;;;;;12.48;4.45;;;17.20;99.90;;;;;;5051754;28;20052;-63
2022/08/01 03:01:42;;;;;;;12.20;4.53;;;17.30;99.90;;;;;;5017248;28;20044;-63
2022/08/01 03:04:09;;;;;;;13.70;4.85;;;17.40;99.90;;;;;;5051034;28;20049;-63
2022/08/01 03:06:36;;;;;;;16.50;4.28;;;17.40;99.90;;;;;;5020497;28;20041;-63
2022/08/01 03:09:03;;;;;;;10.95;4.15;;;17.80;99.90;;;;;;5054844;28;20033;-63
2022/08/01 03:11:31;;;;;;;13.95;4.53;;;17.20;99.90;;;;;;5055331;28;20040;-63
2022/08/01 03:14:00;;;;;;;13.77;5.25;;;17.40;99.90;;;;;;5037686;28;20060;-63
2022/08/01 03:16:26;;;;;;;16.10;4.20;;;17.20;99.90;;;;;;5037045;28;20255;-63
2022/08/01 03:18:55;;;;;;;15.13;4.47;;;17.40;99.90;;;;;;5037727;28;20482;-63
2022/08/01 03:21:23;;;;;;;11.50;4.63;;;17.30;99.90;;;;;;5021172;28;20060;-63
2022/08/01 03:23:53;;;;;;;17.75;5.22;;;17.70;99.90;;;;;;5054617;28;20044;-63
2022/08/01 03:26:19;;;;;;;13.45;4.93;;;17.20;99.90;;;;;;5037537;28;20043;-63
2022/08/01 03:28:47;;;;;;;14.10;5.10;;;17.10;99.90;;;;;;5053508;28;20033;-63
2022/08/01 03:31:14;;;;;;;13.35;4.03;;;17.30;99.90;;;;;;5068891;28;20051;-63
2022/08/01 03:33:40;;;;;;;13.23;4.28;;;17.20;99.90;;;;;;5055892;28;20032;-63
2022/08/01 03:36:09;;;;;;;11.43;4.10;;;17.30;99.90;;;;;;5020735;28;20040;-63
2022/08/01 03:38:39;;;;;;;16.65;5.10;;;17.20;99.90;;;;;;5016720;28;20072;-63
2022/08/01 03:41:27;;;;;;;10.60;4.00;;;17.00;99.90;;;;;;5006918;28;20574;-63
2022/08/01 03:44:00;;;;;;;12.82;4.07;;;17.00;99.90;;;;;;5054797;28;20112;-63
2022/08/01 03:46:49;;;;;;;19.13;3.72;;;17.00;99.90;;;;;;5036111;28;20520;-63
2022/08/01 03:49:19;;;;;;;12.60;3.38;;;17.10;99.90;;;;;;5037195;28;20055;-63
2022/08/01 03:51:49;;;;;;;11.05;3.28;;;16.90;99.90;;;;;;5053743;28;20040;-63
2022/08/01 03:54:19;;;;;;;14.25;3.85;;;17.30;99.90;;;;;;5036939;28;20389;-63
2022/08/01 03:56:47;;;;;;;15.55;4.35;;;17.50;99.90;;;;;;5054126;28;20033;-63
2022/08/01 03:59:15;;;;;;;16.90;4.32;;;16.90;99.90;;;;;;5036175;28;20049;-63
2022/08/01 04:01:41;;;;;;;18.30;4.32;;;;;;;;;;5020041;28;20055;-63
2022/08/01 04:04:07;;;;;;;14.38;4.10;;;16.80;99.90;;;;;;5054478;28;20052;-63
2022/08/01 04:06:33;;;;;;;13.93;3.42;;;16.70;99.90;;;;;;5019615;28;20041;-63
2022/08/01 04:08:59;;;;;;;10.60;3.25;;;16.80;99.90;;;;;;5036534;28;20069;-63
2022/08/01 04:11:25;;;;;;;18.52;4.38;;;16.70;99.90;;;;;;5036637;28;20497;-63
2022/08/01 04:13:53;;;;;;;15.25;4.15;;;16.80;99.90;;;;;;5053483;28;20397;-63
2022/08/01 04:16:19;;;;;;;13.18;4.07;;;16.60;99.90;;;;;;5053872;28;20478;-63
2022/08/01 04:18:44;;;;;;;14.48;4.00;;;16.60;99.90;;;;;;5035450;28;20041;-63
2022/08/01 04:21:13;;;;;;;16.95;4.13;;;;;;;;;;5053612;28;20064;-63
2022/08/01 04:23:41;;;;;;;10.18;2.97;;;;;;;;;;5036175;28;20037;-63
2022/08/01 04:26:07;;;;;;;15.90;3.42;;;;;;;;;;5054123;28;20045;-63
2022/08/01 04:28:35;;;;;;;16.88;4.22;;;;;;;;;;5035419;28;20041;-63
2022/08/01 04:31:01;;;;;;;9.10;3.20;;;;;;;;;;5035928;28;20055;-63
2022/08/01 04:33:28;;;;;;;12.55;4.32;;;;;;;;;;5053171;28;20052;-63
2022/08/01 04:35:56;;;;;;;12.27;4.03;;;;;;;;;;5053961;28;20040;-63
2022/08/01 04:38:27;;;;;;;14.57;3.78;;;;;;;;;;5053491;28;20512;-63
2022/08/01 04:40:54;;;;;;;13.75;3.83;;;;;;;;;;5035163;28;20132;-63
2022/08/01 04:43:20;;;;;;;21.13;3.92;;;;;;;;;;5036043;28;20045;-63
2022/08/01 04:45:47;;;;;;;19.42;4.72;;;;;;;;;;5035589;28;20048;-63
2022/08/01 04:48:14;;;;;;;12.40;3.85;;;;;;;;;;5052948;28;20087;-63
2022/08/01 04:50:41;;;;;;;13.57;4.28;;;;;;;;;;5035724;28;20041;-63
2022/08/01 04:53:13;;;;;;;14.77;3.90;;;;;;;;;;5036040;28;20395;-63
2022/08/01 04:55:39;;;;;;;13.38;4.00;;;;;;;;;;5034848;28;20041;-62
2022/08/01 04:58:05;;;;;;;10.15;3.85;;;;;;;;;;5035442;28;20060;-63
2022/08/01 05:00:31;;;;;;;14.52;4.80;;;;;;;;;;5035716;28;20047;-63
2022/08/01 05:02:59;;;;;;;13.60;4.47;;;;;;;;;;5034435;28;20126;-63
2022/08/01 05:05:26;;;;;;;19.90;4.90;;;;;;;;;;5053384;28;20049;-63
2022/08/01 05:07:52;;;;;;;9.65;3.60;;;;;;;;;;5035489;28;20448;-63
2022/08/01 05:10:18;;;;;;;16.77;5.07;;;;;;;;;;5052621;28;20041;-63
2022/08/01 05:12:44;;;;;;;12.85;4.43;;;;;;;;;;5052770;28;20184;-63
2022/08/01 05:15:10;;;;;;;17.23;4.82;;;;;;;;;;5035577;28;20087;-63
2022/08/01 05:17:36;;;;;;;12.13;4.25;;;;;;;;;;5034397;28;20041;-63
2022/08/01 05:20:02;;;;;;;11.70;3.42;;;;;;;;;;5035134;28;20422;-63
2022/08/01 05:22:28;;;;;;;12.27;3.85;;;;;;;;;;5035396;28;20055;-63
2022/08/01 05:24:54;;;;;;;12.75;4.05;;;;;;;;;;5034532;28;20103;-63
2022/08/01 05:27:20;;;;;;;12.88;4.20;;;;;;;;;;5035284;28;20045;-63
2022/08/01 05:29:46;;;;;;;13.07;4.28;;;;;;;;;;5034155;28;20124;-63
2022/08/01 05:32:12;;;;;;;11.88;3.90;;;;;;;;;;5053006;28;20112;-63
2022/08/01 05:34:38;;;;;;;10.32;4.25;;;;;;;;;;5018753;28;20461;-63
2022/08/01 05:37:04;;;;;;;18.50;4.32;;;;;;;;;;5034037;28;20496;-63
2022/08/01 05:39:30;;;;;;;13.90;3.47;;;;;;;;;;5052636;28;20469;-63
2022/08/01 05:41:56;;;;;;;16.45;4.22;;;;;;;;;;5018351;28;20504;-63
2022/08/01 05:44:22;;;;;;;11.23;3.60;;;;;;;;;;5033750;28;20045;-63
2022/08/01 05:46:48;;;;;;;14.73;4.55;;;;;;;;;;5034762;28;20452;-63
2022/08/01 05:49:14;;;;;;;11.50;3.22;;;;;;;;;;5018427;28;20045;-63
2022/08/01 05:51:40;;;;;;;16.17;4.82;;;;;;;;;;5051495;28;20091;-63
2022/08/01 05:54:07;;;;;;;13.45;4.15;;;;;;;;;;5034399;28;20040;-63
2022/08/01 05:56:33;;;;;;;18.27;4.38;;;;;;;;;;5034440;28;20486;-63
2022/08/01 05:58:59;;;;;;;17.90;4.57;;;;;;;;;;5033257;28;20086;-63
2022/08/01 06:01:25;;;;;;;14.27;3.72;;;;;;;;;;5034545;28;20123;-63
2022/08/01 06:03:53;;;;;;;14.50;3.78;;;;;;;;;;5017944;28;20051;-63
2022/08/01 06:06:20;;;;;;;10.98;3.60;;;;;;;;;;5017494;28;20183;-63
2022/08/01 06:08:46;;;;;;;13.07;3.72;;;;;;;;;;5051733;28;20508;-63
2022/08/01 06:11:12;;;;;;;15.30;4.32;;;;;;;;;;5052457;28;20120;-63
2022/08/01 06:13:38;;;;;;;13.13;3.20;;;;;;;;;;5033592;28;20043;-63
2022/08/01 06:16:04;;;;;;;12.10;3.28;;;;;;;;;;5052133;28;20504;-63
2022/08/01 06:18:30;;;;;;;15.98;4.30;;;;;;;;;;5052101;28;20047;-63
2022/08/01 06:20:56;;;;;;;13.27;3.58;;;;;;;;;;5051041;28;20056;-63
2022/08/01 06:23:23;;;;;;;15.40;3.92;;;;;;;;;;5051885;28;20055;-63
2022/08/01 06:25:49;;;;;;;12.38;3.60;;;;;;;;;;5033834;28;20501;-63
2022/08/01 06:28:15;;;;;;;14.20;4.55;;;;;;;;;;5033396;28;20052;-63
2022/08/01 06:30:41;;;;;;;10.68;2.67;;;;;;;;;;5034331;28;20059;-64
2022/08/01 06:33:08;;;;;;;9.75;2.95;;;;;;;;;;5033175;28;20383;-64
2022/08/01 06:35:34;;;;;;;9.70;2.50;;;;;;;;;;5051827;28;20041;-64
2022/08/01 06:38:00;;;;;;;11.93;3.50;;;;;;;;;;5033761;28;20041;-63
2022/08/01 06:40:26;;;;;;;10.63;3.90;;;;;;;;;;5050655;28;20029;-63
2022/08/01 06:42:52;;;;;;;14.57;3.88;;;;;;;;;;5034236;28;20123;-64
2022/08/01 06:45:22;;;;;;;10.35;3.20;;;;;;;;;;5052147;28;20375;-63
2022/08/01 06:47:48;;;;;;;9.02;2.65;;;;;;;;;;5032958;28;20478;-64
2022/08/01 06:50:14;;;;;;;11.15;2.53;;;;;;;;;;5034254;28;20064;-63
2022/08/01 06:52:41;;;;;;;12.63;3.60;;;;;;;;;;5033539;28;20033;-64
2022/08/01 06:55:07;;;;;;;8.07;2.28;;;;;;;;;;5016389;28;20040;-63
2022/08/01 06:57:34;;;;;;;10.85;2.97;;;;;;;;;;5051761;28;20037;-64
2022/08/01 07:00:03;;;;;;;13.77;2.20;;;;;;;;;;5051603;28;20084;-64
2022/08/01 07:02:29;;;;;;;10.10;3.47;;;;;;;;;;5033245;28;20045;-64
2022/08/01 07:04:55;;;;;;;12.57;3.17;;;;;;;;;;5033628;28;20513;-63
2022/08/01 07:07:21;;;;;;;8.82;2.53;;;;;;;;;;5033710;28;20041;-64
2022/08/01 07:09:47;;;;;;;8.32;2.35;;;;;;;;;;5049816;28;20103;-64
2022/08/01 07:12:13;;;;;;;14.10;3.08;;;;;;;;;;5044162;28;20044;-64
2022/08/01 07:14:39;;;;;;;13.23;2.40;;;;;;;;;;5053697;28;20374;-64
2022/08/01 07:17:05;;;;;;;8.57;2.88;;;;;;;;;;5035692;28;20045;-64
2022/08/01 07:19:31;;;;;;;7.90;2.58;;;;;;;;;;5017011;28;20167;-64
2022/08/01 07:21:57;;;;;;;11.20;3.33;;;;;;;;;;5016820;28;20060;-64
2022/08/01 07:24:23;;;;;;;11.20;3.03;;;;;;;;;;5032780;28;20493;-64
2022/08/01 07:26:50;;;;;;;16.00;3.28;;;;;;;;;;5033472;28;20048;-64
2022/08/01 07:29:16;;;;;;;9.52;2.35;;;;;;;;;;5050526;28;20126;-64
2022/08/01 07:31:42;;;;;;;9.90;3.38;;;;;;;;;;5047157;28;20048;-64
2022/08/01 07:34:08;;;;;;;6.78;2.50;;;;;;;;;;5048696;28;20650;-64
2022/08/01 07:36:34;;;;;;;8.48;2.58;;;;;;;;;;5047990;28;20033;-64
2022/08/01 07:39:00;;;;;;;10.90;2.63;;;;;;;;;;5048069;28;20520;-63
2022/08/01 07:41:26;;;;;;;8.13;2.33;;;;;;;;;;5048093;28;20398;-64
2022/08/01 07:43:52;;;;;;;10.35;3.13;;;;;;;;;;5027667;28;20075;-65
2022/08/01 07:46:18;;;;;;;11.63;3.08;;;;;;;;;;5014245;28;20413;-66
2022/08/01 07:48:44;;;;;;;11.02;2.63;;;;;;;;;;5046849;28;20493;-64
2022/08/01 07:51:11;;;;;;;15.55;3.42;;;;;;;;;;5030687;28;20132;-64
2022/08/01 07:53:37;;;;;;;7.90;2.25;;;;;;;;;;5034044;28;20056;-64
2022/08/01 07:56:05;;;;;;;12.57;3.03;;;;;;;;;;5034782;28;20055;-64
2022/08/01 07:58:31;;;;;;;7.05;1.92;;;;;;;;;;5052100;28;20144;-64
2022/08/01 08:00:57;;;;;;;10.32;2.05;;;;;;;;;;5051632;28;20379;-64
2022/08/01 08:03:23;;;;;;;8.65;2.70;;;;;;;;;;5034355;28;20052;-64
2022/08/01 08:05:49;;;;;;;12.10;3.20;;;;;;;;;;5033465;28;20043;-64
2022/08/01 08:08:17;;;;;;;11.82;2.72;;;;;;;;;;5034335;28;20489;-64
2022/08/01 08:10:44;;;;;;;7.57;2.50;;;;;;;;;;5051142;28;20064;-63
2022/08/01 08:13:10;;;;;;;9.07;2.45;;;;;;;;;;5033825;28;20044;-63
2022/08/01 08:15:36;;;;;;;9.80;2.70;;;;;;;;;;5034536;28;20044;-63
2022/08/01 08:18:03;;;;;;;11.52;2.65;;;;;;;;;;5033917;28;20386;-65
2022/08/01 08:20:29;;;;;;;10.80;3.20;;;;;;;;;;5050756;28;20391;-65
2022/08/01 08:22:58;;;;;;;10.10;2.50;;;;;;;;;;5034327;28;20045;-66
2022/08/01 08:25:24;;;;;;;8.50;2.25;;;;;;;;;;5034401;28;20068;-66
2022/08/01 08:27:50;;;;;;;8.30;2.10;;;;;;;;;;5043810;28;20033;-66
2022/08/01 08:30:16;;;;;;;6.50;1.83;;;;;;;;;;5049491;28;20535;-66
2022/08/01 08:32:43;;;;;;;9.95;2.28;;;;;;;;;;5051096;28;20040;-66
2022/08/01 08:35:09;;;;;;;10.52;2.30;;;;;;;;;;5068287;28;20070;-66
2022/08/01 08:37:36;;;;;;;13.48;2.65;;;;;;;;;;5021219;28;20041;-66
2022/08/01 08:40:03;;;;;;;11.70;2.67;;;;;;;;;;5031129;28;20045;-66
2022/08/01 08:42:29;;;;;;;7.15;2.10;;;;;;;;;;4998003;28;20073;-66
2022/08/01 08:44:55;;;;;;;9.80;2.63;;;;;;;;;;5034096;28;20048;-66
2022/08/01 08:47:22;;;;;;;10.77;2.60;;;;;;;;;;5034958;28;20347;-66
2022/08/01 08:49:49;;;;;;;9.55;2.65;;;;;;;;;;5034723;28;20099;-67
2022/08/01 08:52:16;;;;;;;8.00;2.15;;;;;;;;;;5035625;28;20048;-66
2022/08/01 08:54:42;;;;;;;12.13;2.83;;;;;;;;;;5034700;28;20052;-64
2022/08/01 08:57:10;;;;;;;9.43;2.72;;;;;;;;;;5053384;28;20040;-64
2022/08/01 08:59:37;;;;;;;8.55;2.85;;;;;;;;;;5048128;28;20036;-64
2022/08/01 09:02:04;;;;;;;8.80;2.70;;;;;;;;;;5034608;28;20445;-64
2022/08/01 09:04:30;;;;;;;9.27;2.55;;;;;;;;;;5053156;28;20049;-64
2022/08/01 09:06:56;;;;;;;7.95;2.03;;;;;;;;;;5053247;28;20045;-65
2022/08/01 09:09:23;;;;;;;9.07;2.05;;;;;;;;;;5026124;28;20063;-64
2022/08/01 09:11:49;;;;;;;8.35;2.20;;;;;;;;;;5029284;28;20080;-65
2022/08/01 09:14:32;;;;;;;7.45;2.00;;;;;;;;;;5020717;28;20125;-64
2022/08/01 09:17:03;;;;;;;10.55;3.20;;;;;;;;;;5052640;28;20082;-64
2022/08/01 09:19:36;;;;;;;8.65;1.80;;;;;;;;;;5034415;28;20048;-64
2022/08/01 09:22:03;;;;;;;6.55;1.80;;;;;;;;;;5047709;28;20061;-64
2022/08/01 09:24:30;;;;;;;7.95;2.72;;;;;;;;;;5025234;28;20547;-64
2022/08/01 09:26:56;;;;;;;8.10;1.98;;;;;;;;;;5053238;28;20049;-63
2022/08/01 09:29:27;;;;;;;10.55;2.35;;;;;;;;;;5033672;28;20132;-64
2022/08/01 09:31:55;;;;;;;5.55;1.85;;;;;;;;;;5052763;28;20044;-64
2022/08/01 09:34:25;;;;;;;5.00;1.90;;;;;;;;;;5061514;28;20037;-60
2022/08/01 09:36:54;;;;;;;8.77;1.63;;;;;;;;;;5051543;28;20024;-63
2022/08/01 09:39:20;;;;;;;12.88;2.08;;;;;;;;;;5035421;28;20048;-63
2022/08/01 09:41:47;;;;;;;8.25;1.92;;;;;;;;;;5033861;28;20044;-64
2022/08/01 09:44:13;;;;;;;12.07;2.67;;;;;;;;;;5030790;28;20080;-64
2022/08/01 09:46:49;;;;;;;8.20;2.50;;;;;;;;;;5030973;28;20037;-62
2022/08/01 09:49:27;;;;;;;6.78;1.85;;;;;;;;;;5051198;28;20041;-63
2022/08/01 09:51:53;;;;;;;7.57;2.28;;;;;;;;;;5026699;28;20086;-63
2022/08/01 09:54:28;;;;;;;8.95;2.58;;;;;;;;;;5014451;28;20124;-63
2022/08/01 09:56:54;;;;;;;8.70;2.22;;;;;;;;;;5026961;28;20037;-63
2022/08/01 09:59:20;;;;;;;7.68;2.13;;;;;;;;;;5031793;28;20052;-62
2022/08/01 10:01:48;;;;;;;9.68;2.08;;;;;;;;;;5050973;28;20143;-62
2022/08/01 10:04:16;;;;;;;10.75;2.25;;;;;;;;;;5026663;28;20045;-62
2022/08/01 10:06:43;;;;;;;8.07;1.80;;;;;;;;;;5050011;28;20053;-62
2022/08/01 10:09:10;;;;;;;6.88;2.05;;;;;;;;;;5066575;28;20118;-62
2022/08/01 10:11:38;;;;;;;5.90;1.90;;;;;;;;;;5063221;28;20052;-62
2022/08/01 10:14:05;;;;;;;8.68;1.77;;;;;;;;;;5050459;28;20126;-62
2022/08/01 10:16:32;;;;;;;5.85;1.50;;;;;;;;;;5068860;28;20047;-63
2022/08/01 10:18:59;;;;;;;5.68;1.30;;;;;;;;;;5030717;28;20405;-62
2022/08/01 10:21:27;;;;;;;7.97;2.33;;;;;;;;;;5036710;28;20063;-62
2022/08/01 10:23:54;;;;;;;8.75;2.35;;;;;;;;;;5049890;28;20084;-62
2022/08/01 10:26:21;;;;;;;6.55;2.28;;;;;;;;;;5027997;28;20485;-62
2022/08/01 10:28:48;;;;;;;7.90;1.90;;;;;;;;;;5049377;28;20041;-62
2022/08/01 10:31:14;;;;;;;6.68;1.80;;;;;;;;;;5044123;28;20047;-62
2022/08/01 10:33:41;;;;;;;8.00;1.83;;;;;;;;;;5030322;28;20494;-62
2022/08/01 10:36:08;;;;;;;6.75;1.45;;;;;;;;;;5030961;28;20052;-62
2022/08/01 10:38:35;;;;;;;4.43;1.60;;;;;;;;;;5067547;28;20083;-62
2022/08/01 10:41:03;;;;;;;11.52;2.13;;;;;;;;;;5026363;28;20148;-62
2022/08/01 10:43:29;;;;;;;6.90;1.85;;;;;;;;;;5033706;28;20184;-62
2022/08/01 10:45:55;;;;;;;5.20;1.77;;;;;;;;;;5031406;28;20544;-62
2022/08/01 10:48:25;;;;;;;6.00;1.88;;;;;;;;;;5041111;28;20052;-62
2022/08/01 10:50:55;;;;;;;6.38;1.80;;;;;;;;;;5054837;28;20037;-63
2022/08/01 10:53:22;;;;;;;6.63;1.65;;;;;;;;;;5051121;28;20045;-63
2022/08/01 10:56:00;;;;;;;7.30;1.85;;;;;;;;;;5036564;28;20508;-62
2022/08/01 10:58:37;;;;;;;9.85;2.15;;;;;;;;;;5045064;28;20051;-63
2022/08/01 11:01:15;;;;;;;6.85;2.80;;;;;;;;;;5022568;28;20036;-62
2022/08/01 11:03:42;;;;;;;4.35;1.83;;;;;;;;;;5023681;28;20374;-62
2022/08/01 11:06:16;;;;;;;6.15;1.50;;;;;;;;;;5049434;28;20055;-73
2022/08/01 11:08:43;;;;;;;5.20;1.98;;;;;;;;;;5052913;28;20128;-73
2022/08/01 11:11:09;;;;;;;5.38;1.48;;;;;;;;;;5033326;28;20464;-72
2022/08/01 11:14:01;;;;;;;6.03;1.65;;;;;;;;;;5034133;28;20033;-67
2022/08/01 11:16:31;;;;;;;7.03;2.00;;;;;;;;;;5032731;28;20032;-73
2022/08/01 11:18:57;;;;;;;7.05;1.50;;;;;;;;;;5027651;28;20049;-73
2022/08/01 11:21:43;;;;;;;8.25;1.65;;;;;;;;;;5026014;28;20093;-73
2022/08/01 11:24:09;;;;;;;7.65;1.60;;;;;;;;;;5041590;28;20115;-73
2022/08/01 11:26:35;;;;;;;8.43;1.70;;;;;;;;;;5038800;28;20113;-73
2022/08/01 11:29:12;;;;;;;7.03;2.47;;;;;;;;;;5039772;28;20123;-73
2022/08/01 11:31:38;;;;;;;8.40;1.67;;;;;;;;;;5074947;28;20037;-73
2022/08/01 11:34:04;;;;;;;7.88;1.80;;;;;;;;;;5075055;28;20573;-73
2022/08/01 11:36:30;;;;;;;7.15;1.92;;;;;;;;;;5037564;28;20036;-63
2022/08/01 11:39:06;;;;;;;7.47;1.50;;;;;;;;;;5018643;28;20041;-63
2022/08/01 11:41:33;;;;;;;4.97;1.45;;;;;;;;;;5054138;28;20034;-63
2022/08/01 11:44:16;;;;;;;8.45;1.92;;;;;;;;;;5034481;28;20048;-63
2022/08/01 11:46:51;;;;;;;8.68;2.40;;;;;;;;;;5054364;28;20490;-63
2022/08/01 11:49:31;;;;;;;8.05;2.80;;;;;;;;;;5020337;28;20045;-63
2022/08/01 11:52:08;;;;;;;5.97;1.48;;;;;;;;;;5025453;28;20049;-73
2022/08/01 11:54:42;;;;;;;5.70;2.20;;;;;;;;;;5062168;28;20120;-73
2022/08/01 11:57:10;;;;;;;7.72;2.15;;;;;;;;;;5025355;28;20117;-73
2022/08/01 11:59:37;;;;;;;4.45;1.50;;;;;;;;;;5036794;28;20120;-63
2022/08/01 12:02:03;;;;;;;5.30;1.63;;;;;;;;;;5054673;28;20710;-63
2022/08/01 12:04:44;;;;;;;12.02;2.50;;;;;;;;;;5054283;28;20045;-63
2022/08/01 12:07:15;;;;;;;5.03;1.58;;;;;;;;;;5037109;28;20048;-63
2022/08/01 12:09:41;;;;;;;5.60;1.67;;;;;;;;;;5053729;28;20524;-63
2022/08/01 12:12:07;;;;;;;6.97;1.33;;;;;;;;;;5054332;28;20090;-63
2022/08/01 12:14:33;;;;;;;6.05;1.85;;;;;;;;;;5036296;28;20037;-64
2022/08/01 12:17:00;;;;;;;6.28;1.85;;;;;;;;;;5019997;28;20500;-64
2022/08/01 12:19:26;;;;;;;6.10;1.80;;;;;;;;;;5035604;28;20044;-63
2022/08/01 12:22:10;;;;;;;6.45;1.90;;;;;;;;;;5005090;28;20061;-63
2022/08/01 12:24:36;;;;;;;;;;;;;;;;;;5009173;28;20041;-63
2022/08/01 12:27:03;;;;;;;3.90;1.13;;;;;;;;;;5017391;28;19978;-63
2022/08/01 12:29:40;;;;;;;7.85;1.60;;;;;;;;;;5016616;28;20483;-63
2022/08/01 12:32:21;;;;;;;7.43;1.85;;;;;;;;;;5027582;28;20398;-63
2022/08/01 12:34:47;;;;;;;5.07;1.83;;;;;;;;;;5036223;28;20055;-64
2022/08/01 12:37:13;;;;;;;8.02;1.90;;;;;;;;;;5054131;28;20435;-63
2022/08/01 12:39:39;;;;;;;4.65;1.25;;;;;;;;;;5025946;28;20041;-63
2022/08/01 12:42:07;;;;;;;8.57;2.20;;;;;;;;;;5033451;28;20382;-63
2022/08/01 12:44:33;;;;;;;10.68;2.13;;;;;;;;;;5052861;28;20117;-64
2022/08/01 12:47:01;;;;;;;7.18;1.83;;;;;;;;;;5018628;28;20128;-64
2022/08/01 12:49:27;;;;;;;5.97;1.77;;;;;;;;;;5053524;28;20445;-64
2022/08/01 12:51:54;;;;;;;8.48;1.60;;;;;;;;;;5053573;28;20063;-64
2022/08/01 12:54:20;;;;;;;4.95;1.38;;;;;;;;;;5053087;28;20037;-63
2022/08/01 12:56:46;;;;;;;6.43;2.15;;;;;;;;;;5053130;28;20073;-63
2022/08/01 12:59:22;;;;;;;6.47;1.70;;;;;;;;;;5035868;28;20048;-64
2022/08/01 13:01:48;;;;;;;5.82;1.52;;;;;;;;;;5052833;28;20053;-63
2022/08/01 13:04:14;;;;;;;6.38;1.80;;;;;;;;;;5035865;28;20052;-64
2022/08/01 13:06:40;;;;;;;4.50;1.33;;;;;;;;;;5035855;28;20049;-63
2022/08/01 13:09:08;;;;;;;6.38;1.40;;;;;;;;;;5034642;28;20049;-63
2022/08/01 13:11:34;;;;;;;7.90;1.60;;;;;;;;;;5035275;28;20045;-63
2022/08/01 13:14:01;;;;;;;4.32;1.55;;;;;;;;;;5052267;28;20047;-64
2022/08/01 13:16:27;;;;;;;8.63;1.70;;;;;;;;;;5053415;28;20197;-63
2022/08/01 13:18:56;;;;;;;5.95;1.58;;;;;;;;;;5035317;28;20052;-63
2022/08/01 13:21:28;;;;;;;6.15;1.80;;;;;;;;;;5034700;28;20475;-64
2022/08/01 13:24:11;;;;;;;4.10;1.38;;;;;;;;;;5035316;28;20080;-64
2022/08/01 13:26:38;;;;;;;7.38;1.55;;;;;;;;;;5052731;28;20473;-63
2022/08/01 13:29:05;;;;;;;6.35;1.55;;;;;;;;;;5034318;28;20514;-64
2022/08/01 13:31:35;;;;;;;4.20;1.40;;;;;;;;;;5035264;28;20108;-64
2022/08/01 13:34:01;;;;;;;3.45;1.17;;;;;;;;;;5018637;28;20037;-64
2022/08/01 13:36:28;;;;;;;3.50;1.52;;;;;;;;;;5034357;28;20049;-64
2022/08/01 13:41:39;;;;;;;;;;;;;;;;;;5035435;28;20383;-64
2022/08/01 13:44:05;;;;;;;4.45;1.42;;;;;;;;;;5051920;28;19928;-64
2022/08/01 13:46:31;;;;;;;7.30;1.48;;;;;;;;;;5034831;28;20045;-63
2022/08/01 13:48:57;;;;;;;4.88;1.35;;;;;;;;;;5017858;28;20504;-64
2022/08/01 13:51:23;;;;;;;7.03;1.40;;;;;;;;;;5051529;28;20111;-64
2022/08/01 13:53:49;;;;;;;4.78;1.55;;;;;;;;;;5034691;28;20036;-64
2022/08/01 13:56:17;;;;;;;6.60;1.77;;;;;;;;;;5051769;28;20445;-64
2022/08/01 13:58:43;;;;;;;6.57;1.38;;;;;;;;;;5034719;28;20080;-64
2022/08/01 14:01:09;;;;;;;7.03;1.45;;;;;;;;;;5034744;28;20102;-64
2022/08/01 14:03:35;;;;;;;4.88;1.40;;;20.60;98.20;;;;;;5033716;28;20037;-63
2022/08/01 14:06:02;;;;;;;6.30;2.08;;;20.80;98.80;;;;;;5034268;28;20141;-63
2022/08/01 14:08:27;;;;;;;5.30;1.45;;;20.80;91.90;;;;;;5052087;28;20529;-63